Aviation Digital Data Service (ADDS)

Output produced by METARs form (0416 UTC 29 January 2015)
found at http://aviationweather.gov/adds/metars/
 
KSLK 282323Z 2900/2924 00000KT P6SM SKC 
     FM291500 17008G14KT P6SM OVC150 
     FM292100 17008G15KT 6SM -SHSN BR OVC080